FFT216 KBOS-KRDU
Flight info
| Callsign | FFT216 |
|---|---|
| Flight time | 1h 45m |
| Altitude | 38000 |
| Route | SSOXS7 SSOXS Q167 ZJAAY TAQLE3 |
| Aircraft | A320/M-V/N |
Departure
| Time | 2026-05-06 23:39 |
|---|---|
| Airport | Boston Logan International Airport (KBOS) |
Arrival
| Time | 2026-05-07 01:24 |
|---|---|
| Airport | Raleigh-Durham International Airport (KRDU) |
| Time | Latitude | Longitude | Altitude | Speed | Heading |
|---|---|---|---|---|---|
| 2026-05-06 23:05 | 42.36547 | -71.01409 | 26 ft | 0 kts | 324° |
| 2026-05-06 23:21 | 42.36536 | -71.01398 | 34 ft | 2 kts | 324° |
| 2026-05-06 23:21 | 42.36522 | -71.01386 | 28 ft | 2 kts | 338° |
| 2026-05-06 23:22 | 42.36505 | -71.01379 | 29 ft | 3 kts | 5° |
| 2026-05-06 23:22 | 42.36501 | -71.01379 | 26 ft | 0 kts | 13° |
| 2026-05-06 23:24 | 42.36511 | -71.01374 | 29 ft | 8 kts | 25° |
| 2026-05-06 23:25 | 42.36581 | -71.01318 | 28 ft | 7 kts | 20° |
| 2026-05-06 23:25 | 42.36644 | -71.01287 | 27 ft | 21 kts | 17° |
| 2026-05-06 23:25 | 42.36780 | -71.01285 | 26 ft | 18 kts | 328° |
| 2026-05-06 23:25 | 42.36864 | -71.01395 | 29 ft | 16 kts | 315° |
| 2026-05-06 23:26 | 42.36937 | -71.01495 | 27 ft | 14 kts | 313° |
| 2026-05-06 23:26 | 42.37001 | -71.01584 | 25 ft | 12 kts | 316° |
| 2026-05-06 23:26 | 42.37061 | -71.01661 | 25 ft | 11 kts | 318° |
| 2026-05-06 23:26 | 42.37127 | -71.01687 | 28 ft | 10 kts | 13° |
| 2026-05-06 23:27 | 42.37168 | -71.01647 | 27 ft | 2 kts | 45° |
| 2026-05-06 23:27 | 42.37173 | -71.01639 | 28 ft | 0 kts | 45° |
| 2026-05-06 23:27 | 42.37198 | -71.01604 | 27 ft | 15 kts | 47° |
| 2026-05-06 23:27 | 42.37192 | -71.01480 | 30 ft | 14 kts | 128° |
| 2026-05-06 23:28 | 42.37118 | -71.01377 | 30 ft | 16 kts | 135° |
| 2026-05-06 23:28 | 42.37038 | -71.01270 | 26 ft | 15 kts | 135° |
| 2026-05-06 23:28 | 42.37005 | -71.01226 | 28 ft | 0 kts | 134° |
| 2026-05-06 23:32 | 42.36983 | -71.01195 | 26 ft | 14 kts | 133° |
| 2026-05-06 23:32 | 42.36989 | -71.01110 | 27 ft | 7 kts | 14° |
| 2026-05-06 23:32 | 42.37061 | -71.01062 | 28 ft | 23 kts | 27° |
| 2026-05-06 23:32 | 42.37180 | -71.00984 | 25 ft | 10 kts | 26° |
| 2026-05-06 23:33 | 42.37195 | -71.00975 | 27 ft | 1 kts | 26° |
| 2026-05-06 23:34 | 42.37220 | -71.00959 | 27 ft | 3 kts | 26° |
| 2026-05-06 23:34 | 42.37238 | -71.00947 | 30 ft | 3 kts | 26° |
| 2026-05-06 23:35 | 42.37262 | -71.00931 | 25 ft | 9 kts | 25° |
| 2026-05-06 23:35 | 42.37377 | -71.00871 | 26 ft | 16 kts | 20° |
| 2026-05-06 23:35 | 42.37478 | -71.00822 | 27 ft | 15 kts | 20° |
| 2026-05-06 23:35 | 42.37571 | -71.00777 | 28 ft | 14 kts | 19° |
| 2026-05-06 23:36 | 42.37658 | -71.00735 | 28 ft | 13 kts | 20° |
| 2026-05-06 23:36 | 42.37729 | -71.00700 | 28 ft | 9 kts | 20° |
| 2026-05-06 23:36 | 42.37765 | -71.00678 | 27 ft | 5 kts | 44° |
| 2026-05-06 23:36 | 42.37774 | -71.00642 | 26 ft | 4 kts | 84° |
| 2026-05-06 23:37 | 42.37766 | -71.00596 | 25 ft | 14 kts | 109° |
| 2026-05-06 23:37 | 42.37696 | -71.00520 | 27 ft | 9 kts | 193° |
| 2026-05-06 23:37 | 42.37692 | -71.00522 | 27 ft | 0 kts | 198° |
| 2026-05-06 23:39 | 42.37665 | -71.00534 | 27 ft | 22 kts | 199° |
| 2026-05-06 23:39 | 42.37428 | -71.00647 | 28 ft | 85 kts | 199° |
| 2026-05-06 23:39 | 42.36239 | -71.01229 | 165 ft | 171 kts | 199° |
| 2026-05-06 23:39 | 42.35018 | -71.01577 | 827 ft | 194 kts | 173° |
| 2026-05-06 23:40 | 42.33858 | -71.00472 | 1754 ft | 222 kts | 131° |
| 2026-05-06 23:40 | 42.32976 | -70.98733 | 2459 ft | 232 kts | 137° |
| 2026-05-06 23:40 | 42.31943 | -70.97043 | 3074 ft | 236 kts | 131° |
| 2026-05-06 23:40 | 42.31472 | -70.95658 | 3449 ft | 250 kts | 105° |
| 2026-05-06 23:41 | 42.31508 | -70.93215 | 4017 ft | 272 kts | 77° |
| 2026-05-06 23:41 | 42.31961 | -70.90644 | 4592 ft | 290 kts | 78° |
| 2026-05-06 23:41 | 42.32363 | -70.87911 | 5139 ft | 302 kts | 81° |
| 2026-05-06 23:41 | 42.32739 | -70.85089 | 5692 ft | 307 kts | 82° |
| 2026-05-06 23:42 | 42.33004 | -70.82226 | 6252 ft | 306 kts | 92° |
| 2026-05-06 23:42 | 42.32814 | -70.79381 | 6787 ft | 304 kts | 105° |
| 2026-05-06 23:42 | 42.32173 | -70.76660 | 7325 ft | 303 kts | 119° |
| 2026-05-06 23:42 | 42.31281 | -70.74077 | 7929 ft | 305 kts | 121° |
| 2026-05-06 23:43 | 42.30269 | -70.71564 | 8572 ft | 303 kts | 131° |
| 2026-05-06 23:43 | 42.28912 | -70.69419 | 9216 ft | 298 kts | 145° |
| 2026-05-06 23:43 | 42.27277 | -70.67739 | 9856 ft | 293 kts | 158° |
| 2026-05-06 23:43 | 42.25440 | -70.66571 | 10456 ft | 292 kts | 170° |
| 2026-05-06 23:44 | 42.23481 | -70.65693 | 11061 ft | 303 kts | 170° |
| 2026-05-06 23:44 | 42.21449 | -70.64784 | 11667 ft | 313 kts | 170° |
| 2026-05-06 23:44 | 42.19374 | -70.63847 | 12304 ft | 323 kts | 170° |
| 2026-05-06 23:44 | 42.17218 | -70.62886 | 12948 ft | 330 kts | 173° |
| 2026-05-06 23:45 | 42.14971 | -70.62302 | 13603 ft | 328 kts | 183° |
| 2026-05-06 23:45 | 42.12660 | -70.62295 | 14201 ft | 327 kts | 193° |
| 2026-05-06 23:45 | 42.10462 | -70.62855 | 14784 ft | 326 kts | 202° |
| 2026-05-06 23:45 | 42.08300 | -70.63809 | 15397 ft | 329 kts | 204° |
| 2026-05-06 23:46 | 42.06108 | -70.64789 | 16017 ft | 334 kts | 204° |
| 2026-05-06 23:46 | 42.03888 | -70.65774 | 16647 ft | 337 kts | 204° |
| 2026-05-06 23:46 | 42.01652 | -70.66757 | 17289 ft | 341 kts | 204° |
| 2026-05-06 23:46 | 41.99381 | -70.67749 | 17955 ft | 344 kts | 204° |
| 2026-05-06 23:47 | 41.97062 | -70.68761 | 18561 ft | 347 kts | 204° |
| 2026-05-06 23:47 | 41.94758 | -70.69770 | 19144 ft | 350 kts | 204° |
| 2026-05-06 23:47 | 41.92465 | -70.70774 | 19730 ft | 352 kts | 204° |
| 2026-05-06 23:47 | 41.90122 | -70.71799 | 20334 ft | 355 kts | 204° |
| 2026-05-06 23:48 | 41.87771 | -70.72827 | 20946 ft | 357 kts | 205° |
| 2026-05-06 23:48 | 41.85401 | -70.73866 | 21541 ft | 360 kts | 205° |
| 2026-05-06 23:48 | 41.82992 | -70.74924 | 21866 ft | 370 kts | 205° |
| 2026-05-06 23:48 | 41.80511 | -70.76010 | 22204 ft | 378 kts | 205° |
| 2026-05-06 23:49 | 41.77991 | -70.77110 | 22548 ft | 384 kts | 205° |
| 2026-05-06 23:49 | 41.75434 | -70.78214 | 22896 ft | 387 kts | 205° |
| 2026-05-06 23:49 | 41.72863 | -70.79322 | 23244 ft | 389 kts | 207° |
| 2026-05-06 23:49 | 41.70467 | -70.80927 | 23565 ft | 379 kts | 221° |
| 2026-05-06 23:50 | 41.68320 | -70.82997 | 23857 ft | 380 kts | 222° |
| 2026-05-06 23:50 | 41.64042 | -70.87179 | 24447 ft | 381 kts | 223° |
| 2026-05-06 23:50 | 41.61904 | -70.89276 | 24743 ft | 382 kts | 223° |
| 2026-05-06 23:51 | 41.59756 | -70.91382 | 25055 ft | 383 kts | 223° |
| 2026-05-06 23:51 | 41.57602 | -70.93488 | 25365 ft | 384 kts | 223° |
| 2026-05-06 23:51 | 41.55507 | -70.95676 | 25676 ft | 380 kts | 229° |
| 2026-05-06 23:51 | 41.53728 | -70.98245 | 25995 ft | 374 kts | 237° |
| 2026-05-06 23:52 | 41.52266 | -71.01094 | 26318 ft | 372 kts | 241° |
| 2026-05-06 23:52 | 41.50837 | -71.03979 | 26637 ft | 373 kts | 241° |
| 2026-05-06 23:52 | 41.49400 | -71.06859 | 26969 ft | 374 kts | 240° |
| 2026-05-06 23:52 | 41.47951 | -71.09746 | 27304 ft | 374 kts | 240° |
| 2026-05-06 23:53 | 41.46502 | -71.12629 | 27648 ft | 375 kts | 241° |
| 2026-05-06 23:53 | 41.45050 | -71.15518 | 27983 ft | 375 kts | 241° |
| 2026-05-06 23:53 | 41.43593 | -71.18416 | 28323 ft | 376 kts | 241° |
| 2026-05-06 23:53 | 41.42131 | -71.21314 | 28670 ft | 377 kts | 241° |
| 2026-05-06 23:54 | 41.40666 | -71.24217 | 29018 ft | 377 kts | 241° |
| 2026-05-06 23:54 | 41.39201 | -71.27115 | 29364 ft | 377 kts | 241° |
| 2026-05-06 23:54 | 41.37735 | -71.30017 | 29731 ft | 377 kts | 241° |
| 2026-05-06 23:54 | 41.36275 | -71.32911 | 30069 ft | 376 kts | 241° |
| 2026-05-06 23:55 | 41.34836 | -71.35760 | 30384 ft | 376 kts | 241° |
| 2026-05-06 23:55 | 41.33380 | -71.38647 | 30688 ft | 375 kts | 241° |
| 2026-05-06 23:55 | 41.31930 | -71.41519 | 31003 ft | 374 kts | 242° |
| 2026-05-06 23:55 | 41.30480 | -71.44394 | 31322 ft | 373 kts | 242° |
| 2026-05-06 23:56 | 41.29037 | -71.47254 | 31641 ft | 372 kts | 242° |
| 2026-05-06 23:56 | 41.27590 | -71.50109 | 31970 ft | 371 kts | 242° |
| 2026-05-06 23:56 | 41.26149 | -71.52945 | 32303 ft | 370 kts | 242° |
| 2026-05-06 23:56 | 41.24711 | -71.55770 | 32632 ft | 369 kts | 242° |
| 2026-05-06 23:57 | 41.23272 | -71.58596 | 32971 ft | 368 kts | 242° |
| 2026-05-06 23:57 | 41.21845 | -71.61402 | 33310 ft | 366 kts | 243° |
| 2026-05-06 23:57 | 41.20422 | -71.64199 | 33657 ft | 365 kts | 243° |
| 2026-05-06 23:57 | 41.18981 | -71.67030 | 33990 ft | 364 kts | 243° |
| 2026-05-06 23:58 | 41.17560 | -71.69811 | 34292 ft | 363 kts | 243° |
| 2026-05-06 23:58 | 41.16164 | -71.72544 | 34594 ft | 362 kts | 243° |
| 2026-05-06 23:58 | 41.14753 | -71.75301 | 34893 ft | 360 kts | 243° |
| 2026-05-06 23:58 | 41.13352 | -71.78039 | 35210 ft | 359 kts | 243° |
| 2026-05-06 23:59 | 41.11955 | -71.80781 | 35530 ft | 356 kts | 244° |
| 2026-05-06 23:59 | 41.10578 | -71.83499 | 35848 ft | 354 kts | 244° |
| 2026-05-06 23:59 | 41.09189 | -71.86237 | 36178 ft | 352 kts | 244° |
| 2026-05-06 23:59 | 41.07825 | -71.88918 | 36508 ft | 349 kts | 244° |
| 2026-05-07 00:00 | 41.06469 | -71.91577 | 36848 ft | 347 kts | 244° |
| 2026-05-07 00:00 | 41.05125 | -71.94201 | 37193 ft | 344 kts | 244° |
| 2026-05-07 00:00 | 41.03793 | -71.96817 | 37516 ft | 339 kts | 247° |
| 2026-05-07 00:00 | 41.02710 | -71.99540 | 37811 ft | 332 kts | 252° |
| 2026-05-07 00:01 | 41.00761 | -72.05148 | 37879 ft | 340 kts | 252° |
| 2026-05-07 00:01 | 40.98742 | -72.10906 | 37881 ft | 349 kts | 251° |
| 2026-05-07 00:02 | 40.96661 | -72.16779 | 37880 ft | 355 kts | 251° |
| 2026-05-07 00:02 | 40.94552 | -72.22744 | 37878 ft | 360 kts | 251° |
| 2026-05-07 00:03 | 40.92406 | -72.28787 | 37876 ft | 362 kts | 250° |
| 2026-05-07 00:03 | 40.89279 | -72.34206 | 37879 ft | 381 kts | 235° |
| 2026-05-07 00:04 | 40.85501 | -72.39117 | 37872 ft | 381 kts | 235° |
| 2026-05-07 00:04 | 40.81746 | -72.44005 | 37885 ft | 381 kts | 235° |
| 2026-05-07 00:05 | 40.77761 | -72.48717 | 37887 ft | 388 kts | 231° |
| 2026-05-07 00:05 | 40.73593 | -72.53243 | 37885 ft | 388 kts | 231° |
| 2026-05-07 00:06 | 40.69420 | -72.57751 | 37886 ft | 388 kts | 231° |
| 2026-05-07 00:06 | 40.65314 | -72.62332 | 37889 ft | 385 kts | 232° |
| 2026-05-07 00:07 | 40.61306 | -72.66999 | 37888 ft | 384 kts | 233° |
| 2026-05-07 00:07 | 40.57310 | -72.71654 | 37883 ft | 384 kts | 233° |
| 2026-05-07 00:08 | 40.53272 | -72.76296 | 37881 ft | 385 kts | 233° |
| 2026-05-07 00:08 | 40.49234 | -72.80905 | 37884 ft | 385 kts | 233° |
| 2026-05-07 00:09 | 40.45188 | -72.85517 | 37882 ft | 384 kts | 233° |
| 2026-05-07 00:09 | 40.41153 | -72.90120 | 37884 ft | 384 kts | 233° |
| 2026-05-07 00:10 | 40.37111 | -72.94723 | 37884 ft | 384 kts | 233° |
| 2026-05-07 00:10 | 40.33095 | -72.99278 | 37880 ft | 384 kts | 233° |
| 2026-05-07 00:11 | 40.29056 | -73.03865 | 37881 ft | 384 kts | 233° |
| 2026-05-07 00:11 | 40.25014 | -73.08449 | 37883 ft | 384 kts | 233° |
| 2026-05-07 00:12 | 40.20966 | -73.13031 | 37881 ft | 384 kts | 233° |
| 2026-05-07 00:12 | 40.16921 | -73.17594 | 37886 ft | 384 kts | 233° |
| 2026-05-07 00:13 | 40.12871 | -73.22159 | 37887 ft | 384 kts | 233° |
| 2026-05-07 00:13 | 40.08816 | -73.26721 | 37896 ft | 384 kts | 233° |
| 2026-05-07 00:14 | 40.04766 | -73.31278 | 37891 ft | 385 kts | 233° |
| 2026-05-07 00:14 | 40.00702 | -73.35826 | 37892 ft | 385 kts | 233° |
| 2026-05-07 00:15 | 39.96627 | -73.40374 | 37898 ft | 385 kts | 233° |
| 2026-05-07 00:15 | 39.92562 | -73.44918 | 37823 ft | 385 kts | 233° |
| 2026-05-07 00:16 | 39.90555 | -73.47150 | 37558 ft | 382 kts | 233° |
| 2026-05-07 00:16 | 39.88542 | -73.49377 | 37316 ft | 378 kts | 233° |
| 2026-05-07 00:16 | 39.86546 | -73.51588 | 37076 ft | 376 kts | 233° |
| 2026-05-07 00:16 | 39.84559 | -73.53789 | 36836 ft | 374 kts | 233° |
| 2026-05-07 00:17 | 39.82579 | -73.55992 | 36603 ft | 373 kts | 233° |
| 2026-05-07 00:17 | 39.80609 | -73.58188 | 36365 ft | 372 kts | 233° |
| 2026-05-07 00:17 | 39.79308 | -73.59640 | 36216 ft | 372 kts | 233° |
| 2026-05-07 00:17 | 39.77347 | -73.61830 | 35983 ft | 371 kts | 233° |
| 2026-05-07 00:18 | 39.75388 | -73.64015 | 35759 ft | 371 kts | 233° |
| 2026-05-07 00:18 | 39.73426 | -73.66197 | 35534 ft | 372 kts | 232° |
| 2026-05-07 00:18 | 39.71460 | -73.68379 | 35311 ft | 372 kts | 232° |
| 2026-05-07 00:18 | 39.69489 | -73.70567 | 35086 ft | 372 kts | 232° |
| 2026-05-07 00:19 | 39.67519 | -73.72752 | 34873 ft | 373 kts | 232° |
| 2026-05-07 00:19 | 39.65544 | -73.74943 | 34660 ft | 374 kts | 232° |
| 2026-05-07 00:19 | 39.63568 | -73.77135 | 34441 ft | 375 kts | 232° |
| 2026-05-07 00:19 | 39.61581 | -73.79337 | 34236 ft | 376 kts | 232° |
| 2026-05-07 00:20 | 39.59593 | -73.81537 | 34020 ft | 377 kts | 232° |
| 2026-05-07 00:20 | 39.57593 | -73.83743 | 33795 ft | 378 kts | 231° |
| 2026-05-07 00:20 | 39.55587 | -73.85951 | 33556 ft | 379 kts | 231° |
| 2026-05-07 00:20 | 39.53570 | -73.88168 | 33313 ft | 379 kts | 231° |
| 2026-05-07 00:21 | 39.51557 | -73.90379 | 33075 ft | 380 kts | 231° |
| 2026-05-07 00:21 | 39.49541 | -73.92594 | 32835 ft | 381 kts | 231° |
| 2026-05-07 00:21 | 39.47520 | -73.94816 | 32610 ft | 381 kts | 231° |
| 2026-05-07 00:21 | 39.45496 | -73.97042 | 32372 ft | 382 kts | 230° |
| 2026-05-07 00:22 | 39.43462 | -73.99277 | 32146 ft | 383 kts | 230° |
| 2026-05-07 00:22 | 39.41427 | -74.01506 | 31944 ft | 383 kts | 230° |
| 2026-05-07 00:22 | 39.37415 | -74.05883 | 31903 ft | 376 kts | 230° |
| 2026-05-07 00:23 | 39.33446 | -74.10220 | 31906 ft | 376 kts | 230° |
| 2026-05-07 00:23 | 39.29374 | -74.14702 | 31903 ft | 393 kts | 230° |
| 2026-05-07 00:24 | 39.25130 | -74.19340 | 31902 ft | 405 kts | 229° |
| 2026-05-07 00:24 | 39.20784 | -74.24039 | 31908 ft | 409 kts | 229° |
| 2026-05-07 00:25 | 39.16408 | -74.28751 | 31910 ft | 410 kts | 229° |
| 2026-05-07 00:25 | 39.12036 | -74.33472 | 31905 ft | 410 kts | 229° |
| 2026-05-07 00:26 | 39.07664 | -74.38210 | 31908 ft | 410 kts | 229° |
| 2026-05-07 00:26 | 39.03304 | -74.42943 | 31911 ft | 410 kts | 229° |
| 2026-05-07 00:27 | 38.98959 | -74.47635 | 31910 ft | 410 kts | 229° |
| 2026-05-07 00:27 | 38.94545 | -74.52370 | 31909 ft | 410 kts | 229° |
| 2026-05-07 00:28 | 38.90293 | -74.57143 | 31908 ft | 407 kts | 231° |
| 2026-05-07 00:28 | 38.86144 | -74.62089 | 31911 ft | 406 kts | 232° |
| 2026-05-07 00:29 | 38.82002 | -74.67027 | 31912 ft | 407 kts | 231° |
| 2026-05-07 00:30 | 38.73592 | -74.76790 | 31911 ft | 410 kts | 230° |
| 2026-05-07 00:30 | 38.69162 | -74.81442 | 31913 ft | 413 kts | 227° |
| 2026-05-07 00:31 | 38.64662 | -74.86006 | 31913 ft | 413 kts | 227° |
| 2026-05-07 00:31 | 38.60182 | -74.90598 | 31913 ft | 412 kts | 228° |
| 2026-05-07 00:32 | 38.55733 | -74.95219 | 31911 ft | 412 kts | 228° |
| 2026-05-07 00:32 | 38.51302 | -74.99864 | 31908 ft | 411 kts | 229° |
| 2026-05-07 00:33 | 38.46995 | -75.04652 | 31908 ft | 410 kts | 230° |
| 2026-05-07 00:33 | 38.42532 | -75.09273 | 31905 ft | 415 kts | 226° |
| 2026-05-07 00:34 | 38.37861 | -75.13638 | 31903 ft | 417 kts | 225° |
| 2026-05-07 00:34 | 38.33152 | -75.17977 | 31905 ft | 417 kts | 225° |
| 2026-05-07 00:35 | 38.28522 | -75.22327 | 31904 ft | 417 kts | 225° |
| 2026-05-07 00:35 | 38.23869 | -75.26751 | 31906 ft | 417 kts | 225° |
| 2026-05-07 00:36 | 38.19218 | -75.31168 | 31908 ft | 418 kts | 225° |
| 2026-05-07 00:36 | 38.14547 | -75.35571 | 31912 ft | 418 kts | 225° |
| 2026-05-07 00:37 | 38.09867 | -75.39967 | 31927 ft | 418 kts | 225° |
| 2026-05-07 00:37 | 38.05294 | -75.44489 | 31923 ft | 411 kts | 231° |
| 2026-05-07 00:38 | 38.01513 | -75.49853 | 31924 ft | 406 kts | 236° |
| 2026-05-07 00:38 | 37.97845 | -75.55306 | 31923 ft | 406 kts | 236° |
| 2026-05-07 00:39 | 37.94181 | -75.60762 | 31926 ft | 407 kts | 236° |
| 2026-05-07 00:39 | 37.90496 | -75.66223 | 31926 ft | 408 kts | 236° |
| 2026-05-07 00:40 | 37.86758 | -75.71701 | 31921 ft | 409 kts | 236° |
| 2026-05-07 00:40 | 37.83050 | -75.77104 | 31922 ft | 409 kts | 236° |
| 2026-05-07 00:41 | 37.79317 | -75.82553 | 31908 ft | 410 kts | 236° |
| 2026-05-07 00:41 | 37.77452 | -75.85283 | 31670 ft | 410 kts | 236° |
| 2026-05-07 00:41 | 37.75443 | -75.87879 | 31449 ft | 417 kts | 229° |
| 2026-05-07 00:42 | 37.73279 | -75.90340 | 31230 ft | 419 kts | 229° |
| 2026-05-07 00:42 | 37.71113 | -75.92807 | 31010 ft | 421 kts | 229° |
| 2026-05-07 00:42 | 37.68948 | -75.95313 | 30467 ft | 421 kts | 229° |
| 2026-05-07 00:42 | 37.66836 | -75.97892 | 29893 ft | 423 kts | 230° |
| 2026-05-07 00:43 | 37.64749 | -76.00501 | 29229 ft | 423 kts | 230° |
| 2026-05-07 00:43 | 37.62644 | -76.03117 | 28585 ft | 426 kts | 229° |
| 2026-05-07 00:43 | 37.60495 | -76.05704 | 27964 ft | 429 kts | 229° |
| 2026-05-07 00:43 | 37.58303 | -76.08323 | 27343 ft | 430 kts | 229° |
| 2026-05-07 00:44 | 37.56119 | -76.10923 | 26744 ft | 432 kts | 229° |
| 2026-05-07 00:44 | 37.54005 | -76.13596 | 26154 ft | 430 kts | 233° |
| 2026-05-07 00:44 | 37.51986 | -76.16383 | 25583 ft | 431 kts | 233° |
| 2026-05-07 00:44 | 37.49957 | -76.19090 | 25021 ft | 432 kts | 232° |
| 2026-05-07 00:45 | 37.47852 | -76.21800 | 24460 ft | 432 kts | 231° |
| 2026-05-07 00:45 | 37.45734 | -76.24473 | 24057 ft | 430 kts | 231° |
| 2026-05-07 00:45 | 37.43630 | -76.27115 | 23893 ft | 424 kts | 231° |
| 2026-05-07 00:45 | 37.41573 | -76.29714 | 23916 ft | 415 kts | 232° |
| 2026-05-07 00:46 | 37.39555 | -76.32278 | 23919 ft | 409 kts | 232° |
| 2026-05-07 00:46 | 37.37592 | -76.34789 | 23918 ft | 393 kts | 232° |
| 2026-05-07 00:46 | 37.35762 | -76.37126 | 23922 ft | 357 kts | 232° |
| 2026-05-07 00:46 | 37.34069 | -76.39276 | 23923 ft | 329 kts | 233° |
| 2026-05-07 00:47 | 37.32511 | -76.41276 | 23923 ft | 321 kts | 233° |
| 2026-05-07 00:47 | 37.30969 | -76.43285 | 23925 ft | 319 kts | 234° |
| 2026-05-07 00:47 | 37.29432 | -76.45287 | 23928 ft | 319 kts | 233° |
| 2026-05-07 00:47 | 37.27886 | -76.47286 | 23932 ft | 319 kts | 233° |
| 2026-05-07 00:48 | 37.26334 | -76.49290 | 23903 ft | 320 kts | 233° |
| 2026-05-07 00:48 | 37.24926 | -76.51395 | 23721 ft | 314 kts | 238° |
| 2026-05-07 00:48 | 37.23561 | -76.53536 | 23543 ft | 313 kts | 238° |
| 2026-05-07 00:48 | 37.22189 | -76.55666 | 23330 ft | 313 kts | 238° |
| 2026-05-07 00:49 | 37.20821 | -76.57784 | 23117 ft | 312 kts | 238° |
| 2026-05-07 00:49 | 37.19455 | -76.59903 | 22902 ft | 311 kts | 238° |
| 2026-05-07 00:49 | 37.18098 | -76.62015 | 22687 ft | 310 kts | 238° |
| 2026-05-07 00:49 | 37.16746 | -76.64126 | 22483 ft | 310 kts | 238° |
| 2026-05-07 00:50 | 37.15400 | -76.66224 | 22279 ft | 309 kts | 238° |
| 2026-05-07 00:50 | 37.14058 | -76.68324 | 22071 ft | 308 kts | 238° |
| 2026-05-07 00:50 | 37.12718 | -76.70414 | 21926 ft | 308 kts | 238° |
| 2026-05-07 00:50 | 37.11374 | -76.72501 | 21915 ft | 308 kts | 237° |
| 2026-05-07 00:51 | 37.10021 | -76.74583 | 21920 ft | 309 kts | 237° |
| 2026-05-07 00:51 | 37.08666 | -76.76670 | 21923 ft | 309 kts | 237° |
| 2026-05-07 00:51 | 37.07314 | -76.78759 | 21924 ft | 309 kts | 237° |
| 2026-05-07 00:51 | 37.05944 | -76.80885 | 21937 ft | 310 kts | 237° |
| 2026-05-07 00:52 | 37.04612 | -76.82964 | 21938 ft | 310 kts | 237° |
| 2026-05-07 00:52 | 37.03264 | -76.85071 | 21940 ft | 310 kts | 237° |
| 2026-05-07 00:52 | 37.02020 | -76.87259 | 21935 ft | 304 kts | 249° |
| 2026-05-07 00:52 | 37.01407 | -76.89758 | 21639 ft | 299 kts | 261° |
| 2026-05-07 00:53 | 37.01038 | -76.92309 | 21238 ft | 297 kts | 262° |
| 2026-05-07 00:53 | 37.00690 | -76.94857 | 20839 ft | 295 kts | 262° |
| 2026-05-07 00:53 | 37.00348 | -76.97382 | 20452 ft | 294 kts | 262° |
| 2026-05-07 00:53 | 37.00005 | -76.99899 | 20062 ft | 292 kts | 262° |
| 2026-05-07 00:54 | 36.99663 | -77.02389 | 19668 ft | 290 kts | 262° |
| 2026-05-07 00:54 | 36.99318 | -77.04873 | 19306 ft | 289 kts | 262° |
| 2026-05-07 00:54 | 36.98971 | -77.07341 | 18935 ft | 287 kts | 263° |
| 2026-05-07 00:54 | 36.98619 | -77.09797 | 18570 ft | 286 kts | 262° |
| 2026-05-07 00:55 | 36.98267 | -77.12234 | 18196 ft | 284 kts | 263° |
| 2026-05-07 00:55 | 36.98033 | -77.13844 | 17918 ft | 283 kts | 262° |
| 2026-05-07 00:55 | 36.97570 | -77.17084 | 17359 ft | 282 kts | 262° |
| 2026-05-07 00:55 | 36.97238 | -77.19459 | 16957 ft | 282 kts | 262° |
| 2026-05-07 00:56 | 36.97014 | -77.21095 | 16679 ft | 281 kts | 262° |
| 2026-05-07 00:56 | 36.96609 | -77.23486 | 16276 ft | 282 kts | 252° |
| 2026-05-07 00:56 | 36.95517 | -77.25543 | 15876 ft | 291 kts | 227° |
| 2026-05-07 00:56 | 36.93737 | -77.26843 | 15481 ft | 305 kts | 203° |
| 2026-05-07 00:57 | 36.91593 | -77.27096 | 15090 ft | 320 kts | 179° |
| 2026-05-07 00:57 | 36.89463 | -77.26275 | 14721 ft | 330 kts | 162° |
| 2026-05-07 00:57 | 36.87394 | -77.25045 | 14341 ft | 329 kts | 160° |
| 2026-05-07 00:57 | 36.85344 | -77.23786 | 14038 ft | 326 kts | 159° |
| 2026-05-07 00:58 | 36.83277 | -77.22516 | 13981 ft | 325 kts | 160° |
| 2026-05-07 00:58 | 36.81257 | -77.21273 | 13984 ft | 326 kts | 160° |
| 2026-05-07 00:58 | 36.79252 | -77.20038 | 13996 ft | 326 kts | 160° |
| 2026-05-07 00:58 | 36.77156 | -77.19063 | 13996 ft | 316 kts | 176° |
| 2026-05-07 00:59 | 36.73039 | -77.19783 | 13776 ft | 292 kts | 214° |
| 2026-05-07 00:59 | 36.71453 | -77.21285 | 13633 ft | 284 kts | 231° |
| 2026-05-07 00:59 | 36.70273 | -77.23230 | 13481 ft | 281 kts | 238° |
| 2026-05-07 01:00 | 36.69150 | -77.25215 | 13325 ft | 280 kts | 238° |
| 2026-05-07 01:00 | 36.68021 | -77.27194 | 13169 ft | 279 kts | 238° |
| 2026-05-07 01:00 | 36.66893 | -77.29163 | 13012 ft | 279 kts | 238° |
| 2026-05-07 01:00 | 36.65767 | -77.31122 | 12864 ft | 278 kts | 238° |
| 2026-05-07 01:01 | 36.64643 | -77.33076 | 12713 ft | 277 kts | 238° |
| 2026-05-07 01:01 | 36.63523 | -77.35025 | 12566 ft | 276 kts | 238° |
| 2026-05-07 01:01 | 36.62405 | -77.36969 | 12418 ft | 276 kts | 238° |
| 2026-05-07 01:01 | 36.61291 | -77.38912 | 12261 ft | 275 kts | 238° |
| 2026-05-07 01:02 | 36.60180 | -77.40850 | 12112 ft | 275 kts | 238° |
| 2026-05-07 01:02 | 36.59070 | -77.42785 | 11961 ft | 274 kts | 238° |
| 2026-05-07 01:02 | 36.57962 | -77.44715 | 11811 ft | 274 kts | 238° |
| 2026-05-07 01:02 | 36.56856 | -77.46635 | 11666 ft | 273 kts | 238° |
| 2026-05-07 01:03 | 36.55753 | -77.48553 | 11517 ft | 272 kts | 238° |
| 2026-05-07 01:03 | 36.54654 | -77.50465 | 11362 ft | 271 kts | 238° |
| 2026-05-07 01:03 | 36.53561 | -77.52369 | 11226 ft | 270 kts | 238° |
| 2026-05-07 01:03 | 36.52465 | -77.54275 | 11074 ft | 270 kts | 238° |
| 2026-05-07 01:04 | 36.51373 | -77.56165 | 10929 ft | 269 kts | 237° |
| 2026-05-07 01:04 | 36.50295 | -77.58030 | 10781 ft | 268 kts | 237° |
| 2026-05-07 01:04 | 36.49207 | -77.59912 | 10639 ft | 268 kts | 237° |
| 2026-05-07 01:04 | 36.48124 | -77.61785 | 10502 ft | 267 kts | 237° |
| 2026-05-07 01:05 | 36.47044 | -77.63652 | 10357 ft | 266 kts | 237° |
| 2026-05-07 01:05 | 36.45969 | -77.65515 | 10218 ft | 265 kts | 238° |
| 2026-05-07 01:05 | 36.44893 | -77.67380 | 10089 ft | 264 kts | 237° |
| 2026-05-07 01:05 | 36.43822 | -77.69232 | 10001 ft | 263 kts | 237° |
| 2026-05-07 01:06 | 36.42755 | -77.71073 | 10003 ft | 263 kts | 237° |
| 2026-05-07 01:06 | 36.41686 | -77.72917 | 10001 ft | 263 kts | 237° |
| 2026-05-07 01:06 | 36.40618 | -77.74762 | 10002 ft | 263 kts | 237° |
| 2026-05-07 01:06 | 36.39551 | -77.76603 | 10001 ft | 262 kts | 237° |
| 2026-05-07 01:07 | 36.38482 | -77.78444 | 10001 ft | 262 kts | 237° |
| 2026-05-07 01:07 | 36.37412 | -77.80279 | 10002 ft | 263 kts | 237° |
| 2026-05-07 01:07 | 36.36343 | -77.82117 | 9996 ft | 262 kts | 237° |
| 2026-05-07 01:07 | 36.35281 | -77.83950 | 9998 ft | 262 kts | 237° |
| 2026-05-07 01:08 | 36.34220 | -77.85782 | 9997 ft | 262 kts | 237° |
| 2026-05-07 01:08 | 36.33153 | -77.87617 | 9993 ft | 262 kts | 237° |
| 2026-05-07 01:08 | 36.32087 | -77.89447 | 9993 ft | 261 kts | 237° |
| 2026-05-07 01:08 | 36.31027 | -77.91271 | 9994 ft | 261 kts | 237° |
| 2026-05-07 01:09 | 36.29963 | -77.93099 | 9992 ft | 261 kts | 237° |
| 2026-05-07 01:09 | 36.28898 | -77.94924 | 9992 ft | 262 kts | 237° |
| 2026-05-07 01:09 | 36.27843 | -77.96729 | 9993 ft | 262 kts | 237° |
| 2026-05-07 01:09 | 36.26773 | -77.98555 | 9991 ft | 262 kts | 237° |
| 2026-05-07 01:10 | 36.25705 | -78.00383 | 9992 ft | 262 kts | 237° |
| 2026-05-07 01:10 | 36.24642 | -78.02209 | 9993 ft | 261 kts | 237° |
| 2026-05-07 01:10 | 36.23579 | -78.04038 | 9992 ft | 262 kts | 239° |
| 2026-05-07 01:10 | 36.22674 | -78.05989 | 9616 ft | 259 kts | 248° |
| 2026-05-07 01:11 | 36.21940 | -78.08010 | 9161 ft | 256 kts | 248° |
| 2026-05-07 01:11 | 36.21229 | -78.09943 | 8988 ft | 255 kts | 247° |
| 2026-05-07 01:11 | 36.20496 | -78.11952 | 8995 ft | 256 kts | 248° |
| 2026-05-07 01:11 | 36.19789 | -78.13979 | 8998 ft | 256 kts | 248° |
| 2026-05-07 01:12 | 36.19094 | -78.16012 | 9002 ft | 256 kts | 249° |
| 2026-05-07 01:12 | 36.18417 | -78.18053 | 9005 ft | 256 kts | 249° |
| 2026-05-07 01:12 | 36.17745 | -78.20091 | 9006 ft | 256 kts | 249° |
| 2026-05-07 01:12 | 36.17069 | -78.22141 | 9006 ft | 257 kts | 249° |
| 2026-05-07 01:13 | 36.16397 | -78.24177 | 9011 ft | 257 kts | 249° |
| 2026-05-07 01:13 | 36.15716 | -78.26231 | 8755 ft | 257 kts | 249° |
| 2026-05-07 01:13 | 36.15060 | -78.28273 | 8304 ft | 253 kts | 253° |
| 2026-05-07 01:13 | 36.14663 | -78.30388 | 7867 ft | 252 kts | 258° |
| 2026-05-07 01:14 | 36.14293 | -78.32497 | 7433 ft | 251 kts | 258° |
| 2026-05-07 01:14 | 36.13918 | -78.34596 | 7001 ft | 250 kts | 258° |
| 2026-05-07 01:14 | 36.13541 | -78.36693 | 6575 ft | 250 kts | 258° |
| 2026-05-07 01:14 | 36.13163 | -78.38789 | 6142 ft | 249 kts | 258° |
| 2026-05-07 01:15 | 36.12789 | -78.40869 | 5689 ft | 246 kts | 258° |
| 2026-05-07 01:15 | 36.12419 | -78.42923 | 5237 ft | 244 kts | 257° |
| 2026-05-07 01:15 | 36.12056 | -78.44929 | 5015 ft | 229 kts | 257° |
| 2026-05-07 01:15 | 36.11729 | -78.46735 | 5005 ft | 204 kts | 257° |
| 2026-05-07 01:16 | 36.11331 | -78.48392 | 5006 ft | 199 kts | 251° |
| 2026-05-07 01:16 | 36.10861 | -78.50003 | 5005 ft | 199 kts | 250° |
| 2026-05-07 01:16 | 36.10374 | -78.51608 | 5006 ft | 199 kts | 250° |
| 2026-05-07 01:16 | 36.09885 | -78.53189 | 4940 ft | 202 kts | 250° |
| 2026-05-07 01:17 | 36.09351 | -78.54828 | 4377 ft | 202 kts | 244° |
| 2026-05-07 01:17 | 36.08496 | -78.56142 | 4041 ft | 200 kts | 224° |
| 2026-05-07 01:17 | 36.07359 | -78.57119 | 3805 ft | 202 kts | 211° |
| 2026-05-07 01:17 | 36.06138 | -78.57884 | 3752 ft | 187 kts | 213° |
| 2026-05-07 01:18 | 36.05026 | -78.58638 | 3919 ft | 182 kts | 213° |
| 2026-05-07 01:18 | 36.03816 | -78.59165 | 3925 ft | 186 kts | 202° |
| 2026-05-07 01:18 | 36.02706 | -78.59872 | 3926 ft | 177 kts | 222° |
| 2026-05-07 01:18 | 36.01771 | -78.60854 | 3925 ft | 176 kts | 226° |
| 2026-05-07 01:19 | 36.00884 | -78.61899 | 3858 ft | 175 kts | 229° |
| 2026-05-07 01:19 | 36.00047 | -78.62920 | 3713 ft | 167 kts | 229° |
| 2026-05-07 01:19 | 35.99248 | -78.63905 | 3491 ft | 156 kts | 228° |
| 2026-05-07 01:19 | 35.98524 | -78.64799 | 3320 ft | 136 kts | 228° |
| 2026-05-07 01:20 | 35.97894 | -78.65581 | 3151 ft | 123 kts | 228° |
| 2026-05-07 01:20 | 35.97292 | -78.66328 | 2991 ft | 123 kts | 228° |
| 2026-05-07 01:20 | 35.96696 | -78.67067 | 2833 ft | 120 kts | 229° |
| 2026-05-07 01:20 | 35.96107 | -78.67798 | 2680 ft | 120 kts | 228° |
| 2026-05-07 01:21 | 35.95521 | -78.68525 | 2522 ft | 120 kts | 228° |
| 2026-05-07 01:21 | 35.94926 | -78.69263 | 2367 ft | 122 kts | 227° |
| 2026-05-07 01:21 | 35.94328 | -78.70004 | 2212 ft | 123 kts | 226° |
| 2026-05-07 01:21 | 35.93723 | -78.70753 | 2048 ft | 123 kts | 226° |
| 2026-05-07 01:22 | 35.93114 | -78.71507 | 1886 ft | 125 kts | 226° |
| 2026-05-07 01:22 | 35.92502 | -78.72265 | 1713 ft | 125 kts | 226° |
| 2026-05-07 01:22 | 35.91894 | -78.73018 | 1556 ft | 122 kts | 225° |
| 2026-05-07 01:22 | 35.91289 | -78.73766 | 1397 ft | 125 kts | 225° |
| 2026-05-07 01:23 | 35.90664 | -78.74539 | 1233 ft | 130 kts | 225° |
| 2026-05-07 01:23 | 35.90009 | -78.75349 | 1064 ft | 136 kts | 225° |
| 2026-05-07 01:23 | 35.89336 | -78.76183 | 885 ft | 138 kts | 224° |
| 2026-05-07 01:23 | 35.88655 | -78.77048 | 675 ft | 141 kts | 223° |
| 2026-05-07 01:24 | 35.87957 | -78.77903 | 501 ft | 142 kts | 223° |
| 2026-05-07 01:24 | 35.87277 | -78.78722 | 425 ft | 121 kts | 226° |
| 2026-05-07 01:24 | 35.86815 | -78.79304 | 415 ft | 74 kts | 225° |
| 2026-05-07 01:24 | 35.86540 | -78.79642 | 411 ft | 38 kts | 231° |
| 2026-05-07 01:25 | 35.86556 | -78.79797 | 411 ft | 7 kts | 355° |
| 2026-05-07 01:25 | 35.86564 | -78.79792 | 408 ft | 0 kts | 22° |
| 2026-05-07 01:26 | 35.86570 | -78.79788 | 412 ft | 7 kts | 26° |
| 2026-05-07 01:26 | 35.86645 | -78.79702 | 411 ft | 17 kts | 45° |
| 2026-05-07 01:26 | 35.86733 | -78.79595 | 413 ft | 18 kts | 45° |
| 2026-05-07 01:26 | 35.86818 | -78.79490 | 416 ft | 19 kts | 44° |
| 2026-05-07 01:27 | 35.86919 | -78.79367 | 414 ft | 22 kts | 45° |
| 2026-05-07 01:27 | 35.87009 | -78.79254 | 415 ft | 13 kts | 45° |
| 2026-05-07 01:27 | 35.87073 | -78.79174 | 411 ft | 13 kts | 45° |
| 2026-05-07 01:27 | 35.87131 | -78.79102 | 417 ft | 10 kts | 45° |
| 2026-05-07 01:28 | 35.87187 | -78.79034 | 419 ft | 13 kts | 43° |
| 2026-05-07 01:28 | 35.87252 | -78.79026 | 421 ft | 8 kts | 9° |
| 2026-05-07 01:28 | 35.87298 | -78.79036 | 421 ft | 6 kts | 329° |
| 2026-05-07 01:28 | 35.87309 | -78.79044 | 424 ft | 0 kts | 329° |